Cap Pasley — A8NQ6 — position and weather

sailwx.info

Track history (hours):
 
Tides and Currents Weather Stations Pressure Air Temp Water Temp Dewpoint Dewpoint Depression Visibility Wind Speed Wind Dir Waves Ship Positions

Cap Pasley

Last reported at 2017-Oct-02 12:12 UTC. Time now 2017-Oct-18 18:33 UTC.
Position N 25°05' W 113°28'.
Warning: this ship's position is 16 days out of date.

Length 186 m; draft 8.9 m.

MMSI: 636016648.

Date/timePositionNaut miles runAvg speedWind from/ knotsBaromVisibWave heightAir tempDewpointWater temp
2017-Oct-02 12:12N 25°05' W 113°28'316.4
2017-Oct-02 12:01N 25°07' W 113°30'816.5
2017-Oct-02 11:31N 25°14' W 113°35'816.8
2017-Oct-02 11:00N 25°21' W 113°41'1017.0
2017-Oct-02 10:26N 25°29' W 113°47'717.0
2017-Oct-02 10:01N 25°35' W 113°52'816.8
2017-Oct-02 09:30N 25°42' W 113°57'816.7
2017-Oct-02 09:00N 25°49' W 114°03'816.4
2017-Oct-02 08:31N 25°55' W 114°08'816.2
2017-Oct-02 08:01N 26°02' W 114°13'816.6
2017-Oct-02 07:30N 26°08' W 114°19'3616.8
2017-Oct-02 05:23N 26°37' W 114°42'917.5
2017-Oct-02 04:50N 26°45' W 114°48'917.0
2017-Oct-02 04:18N 26°52' W 114°54'517.1
2017-Oct-02 04:01N 26°56' W 114°58'916.6
2017-Oct-02 03:30N 27°03' W 115°04'2916.6
2017-Oct-02 01:45N 27°27' W 115°23'717.0
2017-Oct-02 01:19N 27°33' W 115°27'516.8
2017-Oct-02 01:00N 27°37' W 115°31'12216.9
2017-Oct-01 17:48N 29°14' W 116°54'9416.7
2017-Oct-01 12:10N 30°28' W 118°01'3316.7
2017-Oct-01 10:12N 30°54' W 118°25'516.6
2017-Oct-01 09:54N 30°58' W 118°28'616.6
2017-Oct-01 09:30N 31°03' W 118°33'816.6
2017-Oct-01 09:01N 31°10' W 118°39'816.5
2017-Oct-01 08:30N 31°16' W 118°45'816.3
2017-Oct-01 08:00N 31°23' W 118°50'1116.5
2017-Oct-01 07:22N 31°31' W 118°58'716.6
2017-Oct-01 06:57N 31°36' W 119°03'716.6
2017-Oct-01 06:30N 31°42' W 119°09'816.8
2017-Oct-01 06:00N 31°49' W 119°15'816.9
2017-Oct-01 05:30N 31°55' W 119°21'816.5
2017-Oct-01 05:00N 32°02' W 119°27'816.5
2017-Oct-01 04:30N 32°08' W 119°33'816.3
2017-Oct-01 04:00N 32°15' W 119°38'816.3
2017-Oct-01 03:30N 32°21' W 119°44'816.8
2017-Oct-01 03:00N 32°28' W 119°50'34113.7
2017-Sep-30 02:00N 37°48' W 122°17'1 2.8
2017-Sep-30 01:29N 37°48' W 122°19'0 0.0
2017-Sep-30 00:59N 37°48' W 122°19'0 0.0
2017-Sep-30 00:29N 37°48' W 122°19'0 0.0
2017-Sep-29 23:59N 37°48' W 122°19'0 0.0
2017-Sep-29 23:29N 37°48' W 122°19'0 0.0
2017-Sep-29 22:59N 37°48' W 122°19'0 0.0
2017-Sep-29 22:29N 37°48' W 122°19'0 0.0
2017-Sep-29 21:56N 37°48' W 122°19'0 0.0
2017-Sep-29 21:29N 37°48' W 122°19'0 0.0
2017-Sep-29 20:59N 37°48' W 122°19'0 0.0
2017-Sep-29 20:29N 37°48' W 122°19'0 0.0
2017-Sep-29 19:56N 37°48' W 122°19'0 0.0
2017-Sep-29 19:29N 37°48' W 122°19'0 0.0
2017-Sep-29 18:56N 37°48' W 122°19'0 0.0
2017-Sep-29 18:29N 37°48' W 122°19'0 0.0
2017-Sep-29 17:59N 37°48' W 122°19'0 0.0
2017-Sep-29 17:29N 37°48' W 122°19'0 0.0
2017-Sep-29 16:59N 37°48' W 122°19'0 0.0
2017-Sep-29 16:29N 37°48' W 122°19'0 0.0
2017-Sep-29 15:59N 37°48' W 122°19'0 0.0
2017-Sep-29 15:29N 37°48' W 122°19'0 0.1
2017-Sep-29 14:59N 37°48' W 122°19'0 0.1
2017-Sep-29 14:29N 37°48' W 122°19'0 0.0
2017-Sep-29 13:59N 37°48' W 122°19'0 0.0
2017-Sep-29 13:29N 37°48' W 122°19'0 0.3
2017-Sep-29 13:00N 37°48' W 122°19'3 5.6
2017-Sep-29 12:31N 37°48' W 122°23'3 6.3
2017-Sep-29 12:00N 37°49' W 122°27'4 7.2
2017-Sep-29 11:30N 37°48' W 122°31'4 7.1
2017-Sep-29 11:00N 37°47' W 122°35'511.0
2017-Sep-29 10:31N 37°44' W 122°41'4 8.7
2017-Sep-29 10:00N 37°39' W 122°40'3 6.2
2017-Sep-29 09:31N 37°36' W 122°40'4 7.3
2017-Sep-29 09:00N 37°33' W 122°40'5 9.2
2017-Sep-29 08:31N 37°28' W 122°40'5 9.9
2017-Sep-29 08:01N 37°23' W 122°40'5 9.8
2017-Sep-29 07:31N 37°18' W 122°39'510.8
2017-Sep-29 07:01N 37°13' W 122°38'611.1
2017-Sep-29 06:31N 37°08' W 122°36'611.4
2017-Sep-29 06:01N 37°02' W 122°34'611.3
2017-Sep-29 05:30N 36°56' W 122°32'611.3
2017-Sep-29 05:00N 36°51' W 122°31'611.1
2017-Sep-29 04:30N 36°46' W 122°29'611.5
2017-Sep-29 04:00N 36°40' W 122°26'611.2
2017-Sep-29 03:30N 36°35' W 122°23'510.8
2017-Sep-29 03:00N 36°30' W 122°20'611.1
2017-Sep-29 02:30N 36°26' W 122°17'611.3
2017-Sep-29 02:00N 36°21' W 122°13'611.4
2017-Sep-29 01:27N 36°15' W 122°10'511.2
2017-Sep-29 01:00N 36°10' W 122°07'511.0
2017-Sep-29 00:30N 36°06' W 122°04'611.3
2017-Sep-28 23:59N 36°01' W 122°00'511.2
2017-Sep-28 23:30N 35°56' W 121°57'611.2
2017-Sep-28 23:00N 35°51' W 121°54'611.4
2017-Sep-28 22:30N 35°46' W 121°51'611.7
2017-Sep-28 22:00N 35°41' W 121°47'611.7
2017-Sep-28 21:30N 35°35' W 121°44'711.7
2017-Sep-28 20:53N 35°29' W 121°40'411.8
2017-Sep-28 20:31N 35°25' W 121°37'611.9
2017-Sep-28 20:00N 35°20' W 121°34'611.6
2017-Sep-28 19:30N 35°15' W 121°30'611.3
2017-Sep-28 19:00N 35°10' W 121°26'612.1
2017-Sep-28 18:30N 35°05' W 121°22'611.9
2017-Sep-28 18:00N 35°00' W 121°18'611.5
2017-Sep-28 17:30N 34°55' W 121°15'611.4
2017-Sep-28 17:00N 34°50' W 121°11'611.8
2017-Sep-28 16:31N 34°45' W 121°07'611.8
2017-Sep-28 16:00N 34°40' W 121°04'611.7
2017-Sep-28 15:30N 34°35' W 120°60'611.4
2017-Sep-28 15:00N 34°31' W 120°56'611.0
2017-Sep-28 14:27N 34°26' W 120°51'511.3
2017-Sep-28 14:00N 34°24' W 120°46'611.3
2017-Sep-28 13:29N 34°23' W 120°39'510.6
2017-Sep-28 13:00N 34°21' W 120°33'510.6
2017-Sep-28 12:30N 34°20' W 120°27'611.4
2017-Sep-28 12:00N 34°19' W 120°20'611.3
2017-Sep-28 11:30N 34°17' W 120°13'611.3
2017-Sep-28 11:00N 34°16' W 120°07'611.3
2017-Sep-28 10:30N 34°14' W 120°00'611.2
2017-Sep-28 10:01N 34°13' W 119°54'611.3
2017-Sep-28 09:30N 34°11' W 119°47'511.1
2017-Sep-28 09:00N 34°10' W 119°41'611.2
2017-Sep-28 08:30N 34°08' W 119°34'611.7
2017-Sep-28 08:00N 34°07' W 119°27'611.4
2017-Sep-28 07:30N 34°05' W 119°21'611.4
2017-Sep-28 07:00N 34°04' W 119°14'611.4
2017-Sep-28 06:30N 34°01' W 119°08'611.6
2017-Sep-28 06:00N 33°58' W 119°02'611.5
2017-Sep-28 05:30N 33°55' W 118°56'611.4
2017-Sep-28 05:00N 33°53' W 118°50'611.3
2017-Sep-28 04:30N 33°50' W 118°44'611.1
2017-Sep-28 04:00N 33°47' W 118°38'611.3
2017-Sep-28 03:31N 33°44' W 118°32'611.2
2017-Sep-28 03:00N 33°41' W 118°26'611.5
2017-Sep-28 02:30N 33°39' W 118°20'611.1
2017-Sep-28 02:00N 33°38' W 118°14'5 9.8
2017-Sep-28 01:31N 33°43' W 118°11'3 6.5
2017-Sep-28 01:00N 33°46' W 118°13'1 1.4
2017-Sep-28 00:22N 33°46' W 118°14'0 0.0
2017-Sep-27 23:55N 33°46' W 118°14'0 0.0
2017-Sep-27 23:28N 33°46' W 118°14'0 0.0
2017-Sep-27 22:55N 33°46' W 118°14'0 0.0
2017-Sep-27 22:25N 33°46' W 118°14'0 0.0
2017-Sep-27 21:58N 33°46' W 118°14'0 0.0
2017-Sep-27 21:28N 33°46' W 118°14'0 0.0
2017-Sep-27 20:58N 33°46' W 118°14'0 0.0
2017-Sep-27 20:28N 33°46' W 118°14'0 0.0
2017-Sep-27 19:58N 33°46' W 118°14'0 0.0
2017-Sep-27 19:28N 33°46' W 118°14'0 0.0
2017-Sep-27 18:58N 33°46' W 118°14'0 0.0
2017-Sep-27 18:28N 33°46' W 118°14'0 0.0
2017-Sep-27 17:58N 33°46' W 118°14'0 0.0
2017-Sep-27 17:28N 33°46' W 118°14'0 0.0
2017-Sep-27 16:58N 33°46' W 118°14'0 0.0
2017-Sep-27 16:28N 33°46' W 118°14'0 0.0
2017-Sep-27 15:58N 33°46' W 118°14'0 0.0
2017-Sep-27 15:28N 33°46' W 118°14'0 0.0
2017-Sep-27 14:55N 33°46' W 118°14'0 0.0
2017-Sep-27 14:28N 33°46' W 118°14'0 0.0
2017-Sep-27 13:58N 33°46' W 118°14'1 1.5
2017-Sep-27 13:30N 33°46' W 118°13'2 4.5
2017-Sep-27 13:00N 33°44' W 118°12'3 6.3
2017-Sep-27 12:31N 33°41' W 118°11'5 9.5
2017-Sep-27 12:01N 33°36' W 118°10'510.4
2017-Sep-27 11:31N 33°31' W 118°08'510.7
2017-Sep-27 11:01N 33°26' W 118°06'510.8
2017-Sep-27 10:31N 33°21' W 118°03'510.9
2017-Sep-27 10:01N 33°16' W 118°01'510.7
2017-Sep-27 09:30N 33°11' W 117°59'510.4
2017-Sep-27 09:00N 33°07' W 117°56'510.5
2017-Sep-27 08:30N 33°02' W 117°53'510.7
2017-Sep-27 08:00N 32°57' W 117°51'510.6
2017-Sep-27 07:31N 32°52' W 117°48'510.6
2017-Sep-27 07:00N 32°47' W 117°45'510.7
2017-Sep-27 06:31N 32°43' W 117°43'611.0
2017-Sep-27 06:00N 32°37' W 117°40'714.0
2017-Sep-27 05:30N 32°31' W 117°38'713.9
2017-Sep-27 05:00N 32°24' W 117°35'714.3
2017-Sep-27 04:30N 32°18' W 117°32'714.7
2017-Sep-27 04:00N 32°11' W 117°29'714.5
2017-Sep-27 03:30N 32°04' W 117°26'714.7
2017-Sep-27 03:00N 31°57' W 117°23'714.4
2017-Sep-27 02:30N 31°50' W 117°21'714.3
2017-Sep-27 02:00N 31°43' W 117°19'714.3
2017-Sep-27 01:30N 31°36' W 117°16'714.0
2017-Sep-27 01:00N 31°30' W 117°13'714.1
2017-Sep-27 00:30N 31°23' W 117°10'612.2
2017-Sep-27 00:01N 31°17' W 117°08'815.3
2017-Sep-26 23:31N 31°10' W 117°05'815.6
2017-Sep-26 23:01N 31°03' W 117°02'815.5
2017-Sep-26 22:30N 30°56' W 116°59'815.3
2017-Sep-26 21:57N 30°48' W 116°56'1115.5
2017-Sep-26 21:17N 30°38' W 116°52'1515.4
2017-Sep-26 20:18N 30°23' W 116°47'515.9
2017-Sep-26 20:01N 30°19' W 116°46'2115.9
2017-Sep-26 18:41N 29°58' W 116°39'616.6
2017-Sep-26 18:18N 29°52' W 116°37'516.8
2017-Sep-26 18:00N 29°48' W 116°35'2716.5
2017-Sep-26 16:24N 29°22' W 116°26'4416.0
2017-Sep-26 13:39N 28°41' W 116°09'216.0
2017-Sep-26 13:30N 28°39' W 116°08'815.8
2017-Sep-26 13:00N 28°31' W 116°05'1514.8
2017-Sep-26 11:58N 28°17' W 115°58'42515.8
2017-Sep-25 09:00N 22°48' W 111°00'37715.7 300 / 251008.5 5.4 24.019.424.0
2017-Sep-24 09:00N 19°18' W 105°24'   290 / 281003.0 5.4 25.023.524.0
Track history (hours):
 
Tides and Currents Weather Stations Pressure Air Temp Water Temp Dewpoint Dewpoint Depression Visibility Wind Speed Wind Dir Waves Ship Positions

Cap Pasley

Last reported at 2017-Oct-02 12:12 UTC. Time now 2017-Oct-18 18:33 UTC.
Position N 25°05' W 113°28'.
Warning: this ship's position is 16 days out of date.

Length 186 m; draft 8.9 m.

MMSI: 636016648.

Date/timePositionNaut miles runAvg speedWind from/ knotsBaromVisibWave heightAir tempDewpointWater temp
2017-Oct-02 12:12N 25°05' W 113°28'316.4
2017-Oct-02 12:01N 25°07' W 113°30'816.5
2017-Oct-02 11:31N 25°14' W 113°35'816.8
2017-Oct-02 11:00N 25°21' W 113°41'1017.0
2017-Oct-02 10:26N 25°29' W 113°47'717.0
2017-Oct-02 10:01N 25°35' W 113°52'816.8
2017-Oct-02 09:30N 25°42' W 113°57'816.7
2017-Oct-02 09:00N 25°49' W 114°03'816.4
2017-Oct-02 08:31N 25°55' W 114°08'816.2
2017-Oct-02 08:01N 26°02' W 114°13'816.6
2017-Oct-02 07:30N 26°08' W 114°19'3616.8
2017-Oct-02 05:23N 26°37' W 114°42'917.5
2017-Oct-02 04:50N 26°45' W 114°48'917.0
2017-Oct-02 04:18N 26°52' W 114°54'517.1
2017-Oct-02 04:01N 26°56' W 114°58'916.6
2017-Oct-02 03:30N 27°03' W 115°04'2916.6
2017-Oct-02 01:45N 27°27' W 115°23'717.0
2017-Oct-02 01:19N 27°33' W 115°27'516.8
2017-Oct-02 01:00N 27°37' W 115°31'12216.9
2017-Oct-01 17:48N 29°14' W 116°54'9416.7
2017-Oct-01 12:10N 30°28' W 118°01'3316.7
2017-Oct-01 10:12N 30°54' W 118°25'516.6
2017-Oct-01 09:54N 30°58' W 118°28'616.6
2017-Oct-01 09:30N 31°03' W 118°33'816.6
2017-Oct-01 09:01N 31°10' W 118°39'816.5
2017-Oct-01 08:30N 31°16' W 118°45'816.3
2017-Oct-01 08:00N 31°23' W 118°50'1116.5
2017-Oct-01 07:22N 31°31' W 118°58'716.6
2017-Oct-01 06:57N 31°36' W 119°03'716.6
2017-Oct-01 06:30N 31°42' W 119°09'816.8
2017-Oct-01 06:00N 31°49' W 119°15'816.9
2017-Oct-01 05:30N 31°55' W 119°21'816.5
2017-Oct-01 05:00N 32°02' W 119°27'816.5
2017-Oct-01 04:30N 32°08' W 119°33'816.3
2017-Oct-01 04:00N 32°15' W 119°38'816.3
2017-Oct-01 03:30N 32°21' W 119°44'816.8
2017-Oct-01 03:00N 32°28' W 119°50'34113.7
2017-Sep-30 02:00N 37°48' W 122°17'1 2.8
2017-Sep-30 01:29N 37°48' W 122°19'0 0.0
2017-Sep-30 00:59N 37°48' W 122°19'0 0.0
2017-Sep-30 00:29N 37°48' W 122°19'0 0.0
2017-Sep-29 23:59N 37°48' W 122°19'0 0.0
2017-Sep-29 23:29N 37°48' W 122°19'0 0.0
2017-Sep-29 22:59N 37°48' W 122°19'0 0.0
2017-Sep-29 22:29N 37°48' W 122°19'0 0.0
2017-Sep-29 21:56N 37°48' W 122°19'0 0.0
2017-Sep-29 21:29N 37°48' W 122°19'0 0.0
2017-Sep-29 20:59N 37°48' W 122°19'0 0.0
2017-Sep-29 20:29N 37°48' W 122°19'0 0.0
2017-Sep-29 19:56N 37°48' W 122°19'0 0.0
2017-Sep-29 19:29N 37°48' W 122°19'0 0.0
2017-Sep-29 18:56N 37°48' W 122°19'0 0.0
2017-Sep-29 18:29N 37°48' W 122°19'0 0.0
2017-Sep-29 17:59N 37°48' W 122°19'0 0.0
2017-Sep-29 17:29N 37°48' W 122°19'0 0.0
2017-Sep-29 16:59N 37°48' W 122°19'0 0.0
2017-Sep-29 16:29N 37°48' W 122°19'0 0.0
2017-Sep-29 15:59N 37°48' W 122°19'0 0.0
2017-Sep-29 15:29N 37°48' W 122°19'0 0.1
2017-Sep-29 14:59N 37°48' W 122°19'0 0.1
2017-Sep-29 14:29N 37°48' W 122°19'0 0.0
2017-Sep-29 13:59N 37°48' W 122°19'0 0.0
2017-Sep-29 13:29N 37°48' W 122°19'0 0.3
2017-Sep-29 13:00N 37°48' W 122°19'3 5.6
2017-Sep-29 12:31N 37°48' W 122°23'3 6.3
2017-Sep-29 12:00N 37°49' W 122°27'4 7.2
2017-Sep-29 11:30N 37°48' W 122°31'4 7.1
2017-Sep-29 11:00N 37°47' W 122°35'511.0
2017-Sep-29 10:31N 37°44' W 122°41'4 8.7
2017-Sep-29 10:00N 37°39' W 122°40'3 6.2
2017-Sep-29 09:31N 37°36' W 122°40'4 7.3
2017-Sep-29 09:00N 37°33' W 122°40'5 9.2
2017-Sep-29 08:31N 37°28' W 122°40'5 9.9
2017-Sep-29 08:01N 37°23' W 122°40'5 9.8
2017-Sep-29 07:31N 37°18' W 122°39'510.8
2017-Sep-29 07:01N 37°13' W 122°38'611.1
2017-Sep-29 06:31N 37°08' W 122°36'611.4
2017-Sep-29 06:01N 37°02' W 122°34'611.3
2017-Sep-29 05:30N 36°56' W 122°32'611.3
2017-Sep-29 05:00N 36°51' W 122°31'611.1
2017-Sep-29 04:30N 36°46' W 122°29'611.5
2017-Sep-29 04:00N 36°40' W 122°26'611.2
2017-Sep-29 03:30N 36°35' W 122°23'510.8
2017-Sep-29 03:00N 36°30' W 122°20'611.1
2017-Sep-29 02:30N 36°26' W 122°17'611.3
2017-Sep-29 02:00N 36°21' W 122°13'611.4
2017-Sep-29 01:27N 36°15' W 122°10'511.2
2017-Sep-29 01:00N 36°10' W 122°07'511.0
2017-Sep-29 00:30N 36°06' W 122°04'611.3
2017-Sep-28 23:59N 36°01' W 122°00'511.2
2017-Sep-28 23:30N 35°56' W 121°57'611.2
2017-Sep-28 23:00N 35°51' W 121°54'611.4
2017-Sep-28 22:30N 35°46' W 121°51'611.7
2017-Sep-28 22:00N 35°41' W 121°47'611.7
2017-Sep-28 21:30N 35°35' W 121°44'711.7
2017-Sep-28 20:53N 35°29' W 121°40'411.8
2017-Sep-28 20:31N 35°25' W 121°37'611.9
2017-Sep-28 20:00N 35°20' W 121°34'611.6
2017-Sep-28 19:30N 35°15' W 121°30'611.3
2017-Sep-28 19:00N 35°10' W 121°26'612.1
2017-Sep-28 18:30N 35°05' W 121°22'611.9
2017-Sep-28 18:00N 35°00' W 121°18'611.5
2017-Sep-28 17:30N 34°55' W 121°15'611.4
2017-Sep-28 17:00N 34°50' W 121°11'611.8
2017-Sep-28 16:31N 34°45' W 121°07'611.8
2017-Sep-28 16:00N 34°40' W 121°04'611.7
2017-Sep-28 15:30N 34°35' W 120°60'611.4
2017-Sep-28 15:00N 34°31' W 120°56'611.0
2017-Sep-28 14:27N 34°26' W 120°51'511.3
2017-Sep-28 14:00N 34°24' W 120°46'611.3
2017-Sep-28 13:29N 34°23' W 120°39'510.6
2017-Sep-28 13:00N 34°21' W 120°33'510.6
2017-Sep-28 12:30N 34°20' W 120°27'611.4
2017-Sep-28 12:00N 34°19' W 120°20'611.3
2017-Sep-28 11:30N 34°17' W 120°13'611.3
2017-Sep-28 11:00N 34°16' W 120°07'611.3
2017-Sep-28 10:30N 34°14' W 120°00'611.2
2017-Sep-28 10:01N 34°13' W 119°54'611.3
2017-Sep-28 09:30N 34°11' W 119°47'511.1
2017-Sep-28 09:00N 34°10' W 119°41'611.2
2017-Sep-28 08:30N 34°08' W 119°34'611.7
2017-Sep-28 08:00N 34°07' W 119°27'611.4
2017-Sep-28 07:30N 34°05' W 119°21'611.4
2017-Sep-28 07:00N 34°04' W 119°14'611.4
2017-Sep-28 06:30N 34°01' W 119°08'611.6
2017-Sep-28 06:00N 33°58' W 119°02'611.5
2017-Sep-28 05:30N 33°55' W 118°56'611.4
2017-Sep-28 05:00N 33°53' W 118°50'611.3
2017-Sep-28 04:30N 33°50' W 118°44'611.1
2017-Sep-28 04:00N 33°47' W 118°38'611.3
2017-Sep-28 03:31N 33°44' W 118°32'611.2
2017-Sep-28 03:00N 33°41' W 118°26'611.5
2017-Sep-28 02:30N 33°39' W 118°20'611.1
2017-Sep-28 02:00N 33°38' W 118°14'5 9.8
2017-Sep-28 01:31N 33°43' W 118°11'3 6.5
2017-Sep-28 01:00N 33°46' W 118°13'1 1.4
2017-Sep-28 00:22N 33°46' W 118°14'0 0.0
2017-Sep-27 23:55N 33°46' W 118°14'0 0.0
2017-Sep-27 23:28N 33°46' W 118°14'0 0.0
2017-Sep-27 22:55N 33°46' W 118°14'0 0.0
2017-Sep-27 22:25N 33°46' W 118°14'0 0.0
2017-Sep-27 21:58N 33°46' W 118°14'0 0.0
2017-Sep-27 21:28N 33°46' W 118°14'0 0.0
2017-Sep-27 20:58N 33°46' W 118°14'0 0.0
2017-Sep-27 20:28N 33°46' W 118°14'0 0.0
2017-Sep-27 19:58N 33°46' W 118°14'0 0.0
2017-Sep-27 19:28N 33°46' W 118°14'0 0.0
2017-Sep-27 18:58N 33°46' W 118°14'0 0.0
2017-Sep-27 18:28N 33°46' W 118°14'0 0.0
2017-Sep-27 17:58N 33°46' W 118°14'0 0.0
2017-Sep-27 17:28N 33°46' W 118°14'0 0.0
2017-Sep-27 16:58N 33°46' W 118°14'0 0.0
2017-Sep-27 16:28N 33°46' W 118°14'0 0.0
2017-Sep-27 15:58N 33°46' W 118°14'0 0.0
2017-Sep-27 15:28N 33°46' W 118°14'0 0.0
2017-Sep-27 14:55N 33°46' W 118°14'0 0.0
2017-Sep-27 14:28N 33°46' W 118°14'0 0.0
2017-Sep-27 13:58N 33°46' W 118°14'1 1.5
2017-Sep-27 13:30N 33°46' W 118°13'2 4.5
2017-Sep-27 13:00N 33°44' W 118°12'3 6.3
2017-Sep-27 12:31N 33°41' W 118°11'5 9.5
2017-Sep-27 12:01N 33°36' W 118°10'510.4
2017-Sep-27 11:31N 33°31' W 118°08'510.7
2017-Sep-27 11:01N 33°26' W 118°06'510.8
2017-Sep-27 10:31N 33°21' W 118°03'510.9
2017-Sep-27 10:01N 33°16' W 118°01'510.7
2017-Sep-27 09:30N 33°11' W 117°59'510.4
2017-Sep-27 09:00N 33°07' W 117°56'510.5
2017-Sep-27 08:30N 33°02' W 117°53'510.7
2017-Sep-27 08:00N 32°57' W 117°51'510.6
2017-Sep-27 07:31N 32°52' W 117°48'510.6
2017-Sep-27 07:00N 32°47' W 117°45'510.7
2017-Sep-27 06:31N 32°43' W 117°43'611.0
2017-Sep-27 06:00N 32°37' W 117°40'714.0
2017-Sep-27 05:30N 32°31' W 117°38'713.9
2017-Sep-27 05:00N 32°24' W 117°35'714.3
2017-Sep-27 04:30N 32°18' W 117°32'714.7
2017-Sep-27 04:00N 32°11' W 117°29'714.5
2017-Sep-27 03:30N 32°04' W 117°26'714.7
2017-Sep-27 03:00N 31°57' W 117°23'714.4
2017-Sep-27 02:30N 31°50' W 117°21'714.3
2017-Sep-27 02:00N 31°43' W 117°19'714.3
2017-Sep-27 01:30N 31°36' W 117°16'714.0
2017-Sep-27 01:00N 31°30' W 117°13'714.1
2017-Sep-27 00:30N 31°23' W 117°10'612.2
2017-Sep-27 00:01N 31°17' W 117°08'815.3
2017-Sep-26 23:31N 31°10' W 117°05'815.6
2017-Sep-26 23:01N 31°03' W 117°02'815.5
2017-Sep-26 22:30N 30°56' W 116°59'815.3
2017-Sep-26 21:57N 30°48' W 116°56'1115.5
2017-Sep-26 21:17N 30°38' W 116°52'1515.4
2017-Sep-26 20:18N 30°23' W 116°47'515.9
2017-Sep-26 20:01N 30°19' W 116°46'2115.9
2017-Sep-26 18:41N 29°58' W 116°39'616.6
2017-Sep-26 18:18N 29°52' W 116°37'516.8
2017-Sep-26 18:00N 29°48' W 116°35'2716.5
2017-Sep-26 16:24N 29°22' W 116°26'4416.0
2017-Sep-26 13:39N 28°41' W 116°09'216.0
2017-Sep-26 13:30N 28°39' W 116°08'815.8
2017-Sep-26 13:00N 28°31' W 116°05'1514.8
2017-Sep-26 11:58N 28°17' W 115°58'42515.8
2017-Sep-25 09:00N 22°48' W 111°00'37715.7 300 / 251008.5 5.4 24.019.424.0
2017-Sep-24 09:00N 19°18' W 105°24'   290 / 281003.0 5.4 25.023.524.0

Dump ship's entire track history